createdAt,value
2023-04-05T00:01:53.513Z,-2.02
2023-04-05T00:04:23.733Z,-2.06
2023-04-05T00:06:52.597Z,-1.96
2023-04-05T00:09:20.701Z,-1.73
2023-04-05T00:11:48.049Z,-2.03
2023-04-05T00:14:15.034Z,-2.06
2023-04-05T00:16:42.021Z,-1.95
2023-04-05T00:19:09.023Z,-1.65
2023-04-05T00:21:35.620Z,-1.54
2023-04-05T00:24:02.730Z,-1.47
2023-04-05T00:26:29.226Z,-1.51
2023-04-05T00:28:57.357Z,-1.53
2023-04-05T00:31:23.934Z,-1.71
2023-04-05T00:33:50.577Z,-1.64
2023-04-05T00:36:19.171Z,-1.62
2023-04-05T00:38:47.318Z,-1.66
2023-04-05T00:41:14.373Z,-1.67
2023-04-05T00:43:41.343Z,-1.65
2023-04-05T00:46:08.923Z,-1.80
2023-04-05T00:48:36.304Z,-1.91
2023-04-05T00:51:03.190Z,-1.84
2023-04-05T00:53:30.328Z,-1.81
2023-04-05T00:55:57.949Z,-1.86
2023-04-05T00:58:24.668Z,-1.81
2023-04-05T01:01:06.774Z,-1.89
2023-04-05T01:03:36.978Z,-1.92
2023-04-05T01:06:43.005Z,-1.82
2023-04-05T01:09:17.812Z,-1.86
2023-04-05T01:11:47.255Z,-1.94
2023-04-05T01:14:14.251Z,-1.84
2023-04-05T01:16:40.768Z,-1.86
2023-04-05T01:19:09.946Z,-1.72
2023-04-05T01:21:38.029Z,-1.73
2023-04-05T01:24:25.929Z,-1.69
2023-04-05T01:27:14.285Z,-1.71
2023-04-05T01:30:04.307Z,-1.82
2023-04-05T01:32:46.740Z,-1.88
2023-04-05T01:35:22.101Z,-2.00
2023-04-05T01:37:57.745Z,-2.35
2023-04-05T01:40:24.633Z,-2.29
2023-04-05T01:42:51.111Z,-2.18
2023-04-05T01:45:17.557Z,-2.16
2023-04-05T01:47:44.157Z,-2.14
2023-04-05T01:50:10.938Z,-2.11
2023-04-05T01:52:37.432Z,-2.46
2023-04-05T01:55:04.201Z,-2.78
2023-04-05T01:57:30.941Z,-2.93
2023-04-05T01:59:57.413Z,-2.98
2023-04-05T02:02:23.949Z,-3.04
2023-04-05T02:04:50.477Z,-3.06
2023-04-05T02:07:17.035Z,-3.03
2023-04-05T02:09:43.510Z,-3.06
2023-04-05T02:12:12.318Z,-3.16
2023-04-05T02:14:38.802Z,-3.16
2023-04-05T02:17:05.636Z,-2.96
2023-04-05T02:19:37.171Z,-2.62
2023-04-05T02:22:03.832Z,-2.66
2023-04-05T02:24:30.434Z,-3.03
2023-04-05T02:26:57.493Z,-3.08
2023-04-05T02:29:24.410Z,-3.17
2023-04-05T02:31:50.907Z,-2.94
2023-04-05T02:34:17.431Z,-2.72
2023-04-05T02:36:44.131Z,-2.62
2023-04-05T02:39:10.728Z,-2.57
2023-04-05T02:41:38.129Z,-2.57
2023-04-05T02:44:04.756Z,-3.09
2023-04-05T02:46:31.197Z,-2.96
2023-04-05T02:48:58.958Z,-2.92
2023-04-05T02:51:28.513Z,-3.26
2023-04-05T02:53:55.461Z,-3.29
2023-04-05T02:56:22.095Z,-3.06
2023-04-05T02:58:49.305Z,-2.92
2023-04-05T03:01:20.981Z,-3.01
2023-04-05T03:03:47.489Z,-3.07
2023-04-05T03:06:15.551Z,-3.33
2023-04-05T03:08:48.988Z,-3.19
2023-04-05T03:11:20.743Z,-3.04
2023-04-05T03:13:51.432Z,-2.95
2023-04-05T03:16:40.897Z,-3.28
2023-04-05T03:19:18.711Z,-3.24
2023-04-05T03:21:46.296Z,-3.15
2023-04-05T03:24:35.417Z,-3.36
2023-04-05T03:27:06.073Z,-3.32
2023-04-05T03:29:39.196Z,-3.63
2023-04-05T03:32:13.845Z,-3.61
2023-04-05T03:34:46.791Z,-3.61
2023-04-05T03:37:15.398Z,-3.68
2023-04-05T03:39:48.359Z,-3.72
2023-04-05T03:42:16.406Z,-3.85
2023-04-05T03:44:44.259Z,-3.86
2023-04-05T03:47:10.942Z,-3.94
2023-04-05T03:49:39.620Z,-4.04
2023-04-05T03:52:06.527Z,-4.02
2023-04-05T03:54:33.028Z,-4.07
2023-04-05T03:57:01.145Z,-4.09
2023-04-05T03:59:28.771Z,-4.17
2023-04-05T04:01:55.342Z,-3.88
2023-04-05T04:04:23.930Z,-3.78
2023-04-05T04:06:50.913Z,-3.89
2023-04-05T04:09:22.919Z,-3.78
2023-04-05T04:11:49.572Z,-3.65
2023-04-05T04:14:19.791Z,-3.53
2023-04-05T04:17:01.790Z,-3.45
2023-04-05T04:19:57.785Z,-3.73
2023-04-05T04:22:48.709Z,-4.08
2023-04-05T04:25:30.872Z,-3.93
2023-04-05T04:28:17.823Z,-3.63
2023-04-05T04:31:04.910Z,-3.51
2023-04-05T04:33:50.599Z,-3.67
2023-04-05T04:36:42.796Z,-3.70
2023-04-05T04:39:45.006Z,-3.91
2023-04-05T04:42:39.083Z,-4.02
2023-04-05T04:45:18.468Z,-4.09
2023-04-05T04:48:06.496Z,-4.01
2023-04-05T04:50:45.523Z,-3.94
2023-04-05T04:53:13.611Z,-3.78
2023-04-05T04:55:43.479Z,-3.94
2023-04-05T04:58:11.943Z,-4.33
2023-04-05T05:00:44.543Z,-4.43
2023-04-05T05:03:11.913Z,-4.45
2023-04-05T05:05:50.221Z,-4.42
2023-04-05T05:08:21.896Z,-4.41
2023-04-05T05:10:52.370Z,-4.45
2023-04-05T05:13:19.009Z,-4.41
2023-04-05T05:15:45.524Z,-4.37
2023-04-05T05:18:12.466Z,-4.42
2023-04-05T05:20:39.430Z,-4.35
2023-04-05T05:23:06.369Z,-4.32
2023-04-05T05:25:32.838Z,-4.21
2023-04-05T05:27:59.920Z,-4.21
2023-04-05T05:30:28.709Z,-4.11
2023-04-05T05:32:55.347Z,-4.02
2023-04-05T05:35:21.893Z,-3.78
2023-04-05T05:37:50.730Z,-3.37
2023-04-05T05:40:17.206Z,-2.65
2023-04-05T05:42:43.643Z,-1.86
2023-04-05T05:45:10.688Z,0.22
2023-04-05T05:47:37.223Z,1.08
2023-04-05T05:50:04.502Z,1.89
2023-04-05T05:52:31.414Z,2.48
2023-04-05T05:54:57.858Z,2.07
2023-04-05T05:57:24.566Z,2.34
2023-04-05T05:59:51.005Z,2.10
2023-04-05T06:02:17.463Z,2.46
2023-04-05T06:04:44.041Z,2.04
2023-04-05T06:07:11.079Z,1.55
2023-04-05T06:09:37.859Z,0.61
2023-04-05T06:12:04.392Z,1.98
2023-04-05T06:14:31.155Z,3.25
2023-04-05T06:16:58.125Z,3.68
2023-04-05T06:19:24.559Z,5.67
2023-04-05T06:21:51.464Z,6.12
2023-04-05T06:24:17.980Z,4.65
2023-04-05T06:26:44.454Z,4.47
2023-04-05T06:29:11.248Z,4.80
2023-04-05T06:31:37.821Z,5.39
2023-04-05T06:34:04.331Z,5.90
2023-04-05T06:36:34.604Z,4.55
2023-04-05T06:39:01.533Z,3.67
2023-04-05T06:41:28.123Z,5.73
2023-04-05T06:43:55.522Z,6.41
2023-04-05T06:46:22.779Z,5.08
2023-04-05T06:48:49.986Z,5.65
2023-04-05T06:51:16.856Z,6.81
2023-04-05T06:53:43.371Z,6.20
2023-04-05T06:56:09.941Z,5.71
2023-04-05T06:58:36.722Z,5.77
2023-04-05T07:01:03.998Z,6.89
2023-04-05T07:03:30.990Z,7.62
2023-04-05T07:05:59.338Z,9.59
2023-04-05T07:08:27.866Z,9.70
2023-04-05T07:10:55.321Z,8.46
2023-04-05T07:13:23.252Z,8.49
2023-04-05T07:15:50.044Z,9.99
2023-04-05T07:18:17.074Z,9.67
2023-04-05T07:20:46.924Z,9.47
2023-04-05T07:23:13.376Z,9.60
2023-04-05T07:25:41.104Z,7.50
2023-04-05T07:28:07.749Z,8.04
2023-04-05T07:30:34.224Z,8.37
2023-04-05T07:33:00.912Z,8.86
2023-04-05T07:35:28.468Z,7.89
2023-04-05T07:37:54.998Z,7.81
2023-04-05T07:40:25.836Z,8.95
2023-04-05T07:42:59.741Z,8.85
2023-04-05T07:45:27.206Z,8.70
2023-04-05T07:47:53.681Z,9.64
2023-04-05T07:50:20.617Z,8.50
2023-04-05T07:52:47.088Z,8.48
2023-04-05T07:55:13.641Z,9.57
2023-04-05T07:57:40.247Z,10.81
2023-04-05T08:00:12.221Z,12.27
2023-04-05T08:02:42.373Z,10.79
2023-04-05T08:05:09.072Z,11.72
2023-04-05T08:07:35.603Z,10.33
2023-04-05T08:10:02.457Z,10.40
2023-04-05T08:12:31.162Z,11.93
2023-04-05T08:14:57.843Z,12.61
2023-04-05T08:17:27.055Z,13.39
2023-04-05T08:19:54.394Z,13.70
2023-04-05T08:22:21.093Z,11.13
2023-04-05T08:24:47.628Z,11.23
2023-04-05T08:27:14.151Z,10.73
2023-04-05T08:29:40.770Z,9.76
2023-04-05T08:32:08.944Z,10.85
2023-04-05T08:34:35.581Z,10.75
2023-04-05T08:37:02.033Z,11.54
2023-04-05T08:39:28.592Z,10.96
2023-04-05T08:42:08.503Z,11.15
2023-04-05T08:44:36.984Z,10.41
2023-04-05T08:47:03.496Z,11.10
2023-04-05T08:49:29.949Z,10.99
2023-04-05T08:51:58.902Z,11.18
2023-04-05T08:54:25.545Z,10.24
2023-04-05T08:56:54.503Z,10.13
2023-04-05T08:59:22.158Z,9.30
2023-04-05T09:01:50.238Z,11.82
2023-04-05T09:04:20.745Z,10.69
2023-04-05T09:06:50.030Z,11.38
2023-04-05T09:09:18.624Z,11.12
2023-04-05T09:11:45.266Z,10.76
2023-04-05T09:14:12.264Z,11.47
2023-04-05T09:16:40.588Z,10.37
2023-04-05T09:19:08.315Z,11.19
2023-04-05T09:22:04.082Z,10.68
2023-04-05T09:24:41.685Z,10.48
2023-04-05T09:27:19.203Z,10.40
2023-04-05T09:29:53.397Z,10.16
2023-04-05T09:32:21.186Z,10.53
2023-04-05T09:34:48.146Z,11.36
2023-04-05T09:37:22.287Z,11.21
2023-04-05T09:39:51.551Z,10.23
2023-04-05T09:42:22.719Z,9.59
2023-04-05T09:44:51.209Z,10.73
2023-04-05T09:47:19.377Z,11.02
2023-04-05T09:49:47.753Z,10.65
2023-04-05T09:52:18.897Z,10.76
2023-04-05T09:54:45.474Z,10.22
2023-04-05T09:57:12.111Z,10.41
2023-04-05T09:59:41.751Z,11.07
2023-04-05T10:02:10.423Z,11.21
2023-04-05T10:04:44.885Z,11.38
2023-04-05T10:07:13.924Z,11.65
2023-04-05T10:09:42.135Z,11.80
2023-04-05T10:12:10.505Z,12.25
2023-04-05T10:14:37.856Z,11.13
2023-04-05T10:17:20.115Z,10.17
2023-04-05T10:20:17.112Z,10.47
2023-04-05T10:22:52.455Z,10.90
2023-04-05T10:25:46.899Z,10.29
2023-04-05T10:28:41.421Z,12.05
2023-04-05T10:31:07.821Z,13.58
2023-04-05T10:33:44.214Z,12.10
2023-04-05T10:36:37.948Z,12.98
2023-04-05T10:39:17.207Z,12.28
2023-04-05T10:41:54.216Z,11.55
2023-04-05T10:44:26.409Z,12.04
2023-04-05T10:46:55.618Z,12.10
2023-04-05T10:49:23.294Z,12.10
2023-04-05T10:51:50.805Z,12.13
2023-04-05T10:54:19.461Z,12.03
2023-04-05T10:56:46.715Z,13.06
2023-04-05T10:59:13.946Z,13.10
2023-04-05T11:01:42.088Z,13.43
2023-04-05T11:04:16.267Z,13.83
2023-04-05T11:06:43.749Z,13.15
2023-04-05T11:09:21.104Z,13.36
2023-04-05T11:11:49.429Z,14.07
2023-04-05T11:14:22.057Z,12.89
2023-04-05T11:16:53.369Z,14.43
2023-04-05T11:19:20.692Z,13.53
2023-04-05T11:21:47.507Z,13.74
2023-04-05T11:24:18.794Z,13.81
2023-04-05T11:26:48.087Z,14.15
2023-04-05T11:29:17.593Z,14.74
2023-04-05T11:32:01.142Z,14.75
2023-04-05T11:34:27.618Z,16.55
2023-04-05T11:36:54.282Z,17.40
2023-04-05T11:39:23.947Z,16.15
2023-04-05T11:42:03.790Z,16.64
2023-04-05T11:44:40.781Z,16.52
2023-04-05T11:47:07.590Z,15.57
2023-04-05T11:49:34.664Z,16.00
2023-04-05T11:52:14.054Z,14.81
2023-04-05T11:54:45.982Z,16.33
2023-04-05T11:57:20.065Z,16.83
2023-04-05T11:59:46.858Z,16.53
2023-04-05T12:02:13.286Z,14.72
2023-04-05T12:04:40.616Z,16.90
2023-04-05T12:07:18.176Z,16.17
2023-04-05T12:10:03.476Z,16.68
2023-04-05T12:12:38.304Z,16.94
2023-04-05T12:15:08.296Z,16.40
2023-04-05T12:17:46.990Z,16.05
2023-04-05T12:20:16.232Z,17.46
2023-04-05T12:22:44.205Z,16.30
2023-04-05T12:25:12.016Z,18.16
2023-04-05T12:27:39.347Z,17.67
2023-04-05T12:30:17.806Z,15.33
2023-04-05T12:32:46.631Z,15.95
2023-04-05T12:35:15.923Z,15.64
2023-04-05T12:37:42.492Z,16.08
2023-04-05T12:40:10.227Z,16.05
2023-04-05T12:42:40.789Z,15.74
2023-04-05T12:45:12.937Z,15.39
2023-04-05T12:47:50.840Z,14.17
2023-04-05T12:50:18.695Z,14.67
2023-04-05T12:52:59.558Z,15.56
2023-04-05T12:55:29.029Z,16.38
2023-04-05T12:57:59.537Z,15.77
2023-04-05T13:00:28.093Z,16.40
2023-04-05T13:02:56.158Z,17.09
2023-04-05T13:05:25.164Z,16.96
2023-04-05T13:07:51.935Z,16.84
2023-04-05T13:10:20.561Z,16.46
2023-04-05T13:12:47.495Z,16.71
2023-04-05T13:15:15.340Z,15.27
2023-04-05T13:17:42.812Z,17.62
2023-04-05T13:20:10.340Z,16.15
2023-04-05T13:22:37.177Z,16.59
2023-04-05T13:25:04.543Z,15.44
2023-04-05T13:27:31.230Z,15.48
2023-04-05T13:29:57.800Z,14.59
2023-04-05T13:32:24.438Z,14.98
2023-04-05T13:34:51.028Z,14.34
2023-04-05T13:37:17.487Z,13.35
2023-04-05T13:39:44.114Z,12.73
2023-04-05T13:42:10.810Z,12.87
2023-04-05T13:44:38.245Z,11.84
2023-04-05T13:47:04.800Z,12.19
2023-04-05T13:49:31.245Z,11.13
2023-04-05T13:51:57.666Z,11.10
2023-04-05T13:54:24.118Z,10.95
2023-04-05T13:56:50.582Z,10.95
2023-04-05T13:59:17.316Z,11.82
2023-04-05T14:01:43.881Z,10.68
2023-04-05T14:04:10.983Z,10.38
2023-04-05T14:06:37.748Z,10.62
2023-04-05T14:09:04.827Z,10.61
2023-04-05T14:11:35.818Z,10.61
2023-04-05T14:14:02.896Z,10.01
2023-04-05T14:16:29.976Z,10.04
2023-04-05T14:18:56.739Z,9.72
2023-04-05T14:21:24.534Z,10.65
2023-04-05T14:23:54.251Z,10.22
2023-04-05T14:26:20.702Z,10.46
2023-04-05T14:29:19.111Z,10.26
2023-04-05T14:31:45.686Z,9.81
2023-04-05T14:34:12.267Z,9.81
2023-04-05T14:36:38.718Z,9.53
2023-04-05T14:39:05.325Z,9.24
2023-04-05T14:41:32.228Z,9.14
2023-04-05T14:43:59.166Z,9.28
2023-04-05T14:46:25.746Z,9.14
2023-04-05T14:48:52.283Z,9.05
2023-04-05T14:51:18.820Z,9.43
2023-04-05T14:53:45.284Z,9.58
2023-04-05T14:56:12.120Z,9.45
2023-04-05T14:58:38.534Z,9.40
2023-04-05T15:01:05.245Z,9.18
2023-04-05T15:03:31.877Z,9.16
2023-04-05T15:05:58.353Z,8.89
2023-04-05T15:08:24.827Z,9.09
2023-04-05T15:10:51.280Z,9.24
2023-04-05T15:13:19.731Z,9.39
2023-04-05T15:15:46.232Z,9.51
2023-04-05T15:18:12.835Z,9.56
2023-04-05T15:20:39.267Z,9.59
2023-04-05T15:23:05.743Z,9.32
2023-04-05T15:25:32.175Z,9.43
2023-04-05T15:28:02.297Z,9.43
2023-04-05T15:30:29.890Z,9.34
2023-04-05T15:32:56.368Z,9.04
2023-04-05T15:35:23.000Z,8.60
2023-04-05T15:37:49.486Z,8.50
2023-04-05T15:40:16.367Z,8.82
2023-04-05T15:42:42.808Z,8.83
2023-04-05T15:45:09.818Z,8.61
2023-04-05T15:47:36.444Z,8.68
2023-04-05T15:50:06.260Z,8.93
2023-04-05T15:52:33.992Z,8.81
2023-04-05T15:55:00.650Z,9.01
2023-04-05T15:57:27.116Z,8.81
2023-04-05T15:59:54.413Z,8.75
2023-04-05T16:02:20.886Z,8.73
2023-04-05T16:04:47.445Z,8.75
2023-04-05T16:07:16.727Z,8.79
2023-04-05T16:09:43.302Z,8.70
2023-04-05T16:12:09.766Z,8.76
2023-04-05T16:14:36.276Z,8.50
2023-04-05T16:17:02.775Z,8.42
2023-04-05T16:19:29.288Z,8.61
2023-04-05T16:21:55.831Z,8.36
2023-04-05T16:24:22.469Z,8.42
2023-04-05T16:26:48.850Z,8.53
2023-04-05T16:29:15.254Z,8.40
2023-04-05T16:31:46.936Z,8.19
2023-04-05T16:34:13.970Z,8.13
2023-04-05T16:36:41.256Z,8.16
2023-04-05T16:39:07.750Z,8.23
2023-04-05T16:41:36.138Z,8.11
2023-04-05T16:44:03.039Z,8.03
2023-04-05T16:46:32.028Z,7.95
2023-04-05T16:49:00.348Z,7.68
2023-04-05T16:51:28.004Z,7.76
2023-04-05T16:53:55.636Z,7.56
2023-04-05T16:56:23.355Z,7.72
2023-04-05T16:58:49.831Z,7.68
2023-04-05T17:01:16.308Z,7.32
2023-04-05T17:03:46.842Z,7.53
2023-04-05T17:06:14.328Z,7.53
2023-04-05T17:08:41.005Z,7.42
2023-04-05T17:11:07.668Z,7.22
2023-04-05T17:13:34.162Z,7.35
2023-04-05T17:16:00.826Z,7.24
2023-04-05T17:18:27.615Z,7.25
2023-04-05T17:20:54.066Z,7.05
2023-04-05T17:23:20.572Z,6.99
2023-04-05T17:25:47.010Z,6.81
2023-04-05T17:28:13.463Z,6.75
2023-04-05T17:30:39.986Z,6.63
2023-04-05T17:33:06.614Z,6.55
2023-04-05T17:35:33.151Z,6.43
2023-04-05T17:37:59.635Z,6.55
2023-04-05T17:40:26.078Z,6.52
2023-04-05T17:42:52.538Z,6.36
2023-04-05T17:45:18.950Z,6.29
2023-04-05T17:47:45.507Z,6.18
2023-04-05T17:50:12.031Z,6.08
2023-04-05T17:52:38.549Z,6.01
2023-04-05T17:55:05.731Z,5.82
2023-04-05T17:57:32.246Z,5.78
2023-04-05T17:59:59.329Z,5.74
2023-04-05T18:02:31.160Z,5.46
2023-04-05T18:04:59.438Z,5.39
2023-04-05T18:07:27.355Z,5.31
2023-04-05T18:09:53.884Z,5.15
2023-04-05T18:12:22.014Z,5.16
2023-04-05T18:14:48.652Z,5.00
2023-04-05T18:17:15.308Z,4.70
2023-04-05T18:19:42.196Z,4.65
2023-04-05T18:22:08.632Z,4.52
2023-04-05T18:24:35.415Z,4.43
2023-04-05T18:27:02.128Z,4.26
2023-04-05T18:29:30.873Z,4.47
2023-04-05T18:32:12.232Z,4.28
2023-04-05T18:34:38.918Z,4.19
2023-04-05T18:37:05.674Z,3.79
2023-04-05T18:39:32.406Z,3.63
2023-04-05T18:41:59.070Z,3.49
2023-04-05T18:44:26.038Z,3.35
2023-04-05T18:46:53.653Z,3.28
2023-04-05T18:49:21.914Z,3.27
2023-04-05T18:51:48.852Z,3.25
2023-04-05T18:54:18.176Z,3.34
2023-04-05T18:56:45.424Z,3.33
2023-04-05T18:59:12.349Z,3.32
2023-04-05T19:01:38.929Z,3.28
2023-04-05T19:04:06.004Z,3.20
2023-04-05T19:06:34.983Z,3.13
2023-04-05T19:09:01.919Z,3.02
2023-04-05T19:11:28.516Z,2.90
2023-04-05T19:13:55.320Z,2.82
2023-04-05T19:16:21.762Z,2.75
2023-04-05T19:18:48.296Z,2.69
2023-04-05T19:21:15.113Z,2.60
2023-04-05T19:23:41.983Z,2.43
2023-04-05T19:26:08.395Z,2.36
2023-04-05T19:28:34.850Z,2.34
2023-04-05T19:31:01.320Z,2.29
2023-04-05T19:33:30.251Z,2.23
2023-04-05T19:35:57.804Z,2.10
2023-04-05T19:38:24.321Z,2.35
2023-04-05T19:40:50.937Z,2.30
2023-04-05T19:43:17.480Z,2.04
2023-04-05T19:45:44.255Z,1.92
2023-04-05T19:48:37.588Z,1.98
2023-04-05T19:51:06.836Z,1.89
2023-04-05T19:53:39.336Z,1.80
2023-04-05T19:56:12.541Z,1.75
2023-04-05T19:58:39.117Z,1.98
2023-04-05T20:01:06.760Z,1.86
2023-04-05T20:03:36.159Z,1.87
2023-04-05T20:06:08.014Z,1.93
2023-04-05T20:08:37.303Z,1.68
2023-04-05T20:11:19.313Z,1.64
2023-04-05T20:13:52.244Z,1.69
2023-04-05T20:16:25.548Z,1.80
2023-04-05T20:18:52.808Z,1.86
2023-04-05T20:21:19.706Z,1.86
2023-04-05T20:23:47.273Z,1.83
2023-04-05T20:26:16.002Z,1.73
2023-04-05T20:28:53.248Z,1.47
2023-04-05T20:31:25.880Z,1.41
2023-04-05T20:34:09.465Z,1.45
2023-04-05T20:36:37.971Z,1.49
2023-04-05T20:39:06.485Z,1.59
2023-04-05T20:41:33.275Z,1.66
2023-04-05T20:44:00.440Z,1.66
2023-04-05T20:46:27.857Z,1.64
2023-04-05T20:48:57.952Z,1.66
2023-04-05T20:51:24.717Z,1.53
2023-04-05T20:53:51.250Z,1.48
2023-04-05T20:56:18.032Z,1.10
2023-04-05T20:58:44.600Z,0.95
2023-04-05T21:01:11.521Z,1.10
2023-04-05T21:03:40.530Z,1.16
2023-04-05T21:06:09.018Z,1.14
2023-04-05T21:08:37.143Z,1.10
2023-04-05T21:11:04.915Z,0.65
2023-04-05T21:13:31.578Z,0.84
2023-04-05T21:15:58.333Z,0.93
2023-04-05T21:18:25.573Z,0.95
2023-04-05T21:20:53.548Z,0.89
2023-04-05T21:23:22.451Z,0.85
2023-04-05T21:25:49.723Z,0.79
2023-04-05T21:28:16.533Z,0.81
2023-04-05T21:30:43.632Z,0.78
2023-04-05T21:33:10.609Z,0.78
2023-04-05T21:35:37.212Z,0.73
2023-04-05T21:38:03.809Z,0.66
2023-04-05T21:40:30.670Z,0.64
2023-04-05T21:42:57.596Z,0.56
2023-04-05T21:45:24.427Z,0.56
2023-04-05T21:47:51.180Z,0.62
2023-04-05T21:50:17.817Z,0.42
2023-04-05T21:52:45.346Z,0.05
2023-04-05T21:55:12.501Z,-0.10
2023-04-05T21:57:39.036Z,-0.14
2023-04-05T22:00:10.841Z,0.16
2023-04-05T22:02:41.223Z,0.19
2023-04-05T22:05:08.501Z,0.25
2023-04-05T22:07:35.871Z,0.26
2023-04-05T22:10:03.245Z,0.31
2023-04-05T22:12:29.796Z,-0.14
2023-04-05T22:14:56.516Z,-0.23
2023-04-05T22:17:23.337Z,-0.16
2023-04-05T22:19:49.888Z,-0.08
2023-04-05T22:22:17.333Z,-0.51
2023-04-05T22:24:44.162Z,-0.71
2023-04-05T22:27:11.862Z,-0.48
2023-04-05T22:29:38.654Z,-0.27
2023-04-05T22:32:05.672Z,-0.31
2023-04-05T22:34:32.165Z,-0.28
2023-04-05T22:36:58.695Z,-0.29
2023-04-05T22:39:25.359Z,-0.34
2023-04-05T22:41:51.791Z,-0.27
2023-04-05T22:44:18.281Z,-0.19
2023-04-05T22:46:44.766Z,-0.51
2023-04-05T22:49:11.205Z,-0.89
2023-04-05T22:51:37.654Z,-0.61
2023-04-05T22:54:04.202Z,-0.67
2023-04-05T22:56:31.520Z,-0.75
2023-04-05T22:58:58.137Z,-1.01
2023-04-05T23:01:24.794Z,-1.12
2023-04-05T23:03:51.494Z,-1.03
2023-04-05T23:06:17.959Z,-1.27
2023-04-05T23:08:44.414Z,-1.46
2023-04-05T23:11:10.935Z,-1.25
2023-04-05T23:13:37.379Z,-1.22
2023-04-05T23:16:04.325Z,-1.02
2023-04-05T23:18:30.985Z,-1.35
2023-04-05T23:20:57.495Z,-1.28
2023-04-05T23:23:24.022Z,-1.08
2023-04-05T23:25:51.099Z,-0.89
2023-04-05T23:28:17.587Z,-0.94
2023-04-05T23:30:44.053Z,-0.89
2023-04-05T23:33:12.979Z,-0.82
2023-04-05T23:35:40.553Z,-1.34
2023-04-05T23:38:07.344Z,-1.52
2023-04-05T23:40:34.010Z,-1.20
2023-04-05T23:43:00.690Z,-1.05
2023-04-05T23:45:27.524Z,-1.09
2023-04-05T23:47:55.484Z,-1.09
2023-04-05T23:50:22.360Z,-1.06
2023-04-05T23:52:49.147Z,-1.54
2023-04-05T23:55:15.952Z,-1.73
2023-04-05T23:57:42.407Z,-1.77
